sensor_id;sensor_type;location;lat;lon;timestamp;pressure;altitude;pressure_sealevel;temperature;humidity
58775;BME280;44545;47.480;19.024;2023-09-12T03:23:03;99907.84;;;17.94;100.00
58775;BME280;44545;47.480;19.024;2023-09-12T03:26:06;99907.84;;;17.94;100.00
58775;BME280;44545;47.480;19.024;2023-09-12T03:29:08;99914.47;;;17.26;100.00
58775;BME280;44545;47.480;19.024;2023-09-12T03:32:11;99920.75;;;17.33;100.00
58775;BME280;44545;47.480;19.024;2023-09-12T03:35:16;99922.75;;;17.45;100.00
58775;BME280;44545;47.480;19.024;2023-09-12T03:38:19;99926.09;;;17.36;100.00
58775;BME280;44545;47.480;19.024;2023-09-12T03:41:21;99924.06;;;17.23;100.00
58775;BME280;44545;47.480;19.024;2023-09-12T03:44:27;99921.00;;;17.45;100.00
58775;BME280;44545;47.480;19.024;2023-09-12T03:47:30;99931.31;;;17.33;100.00
58775;BME280;44545;47.480;19.024;2023-09-12T03:50:32;99921.16;;;17.53;100.00
58775;BME280;44545;47.480;19.024;2023-09-12T03:53:35;99921.16;;;17.54;100.00
58775;BME280;44545;47.480;19.024;2023-09-12T03:56:37;99922.13;;;17.58;100.00
58775;BME280;44545;47.480;19.024;2023-09-12T03:59:40;99923.88;;;17.59;100.00
58775;BME280;44545;47.480;19.024;2023-09-12T04:02:42;99918.53;;;17.54;100.00
58775;BME280;44545;47.480;19.024;2023-09-12T04:05:46;99912.31;;;17.51;100.00
58775;BME280;44545;47.480;19.024;2023-09-12T04:08:49;99919.28;;;17.47;100.00
58775;BME280;44545;47.480;19.024;2023-09-12T04:11:51;99921.97;;;17.50;100.00
58775;BME280;44545;47.480;19.024;2023-09-12T04:14:55;99924.63;;;17.52;100.00
58775;BME280;44545;47.480;19.024;2023-09-12T04:17:57;99928.09;;;17.49;100.00
58775;BME280;44545;47.480;19.024;2023-09-12T04:21:00;99925.41;;;17.46;100.00
58775;BME280;44545;47.480;19.024;2023-09-12T04:24:02;99928.84;;;17.42;100.00
58775;BME280;44545;47.480;19.024;2023-09-12T04:27:06;99923.50;;;17.38;100.00
58775;BME280;44545;47.480;19.024;2023-09-12T04:30:09;99926.88;;;17.30;100.00
58775;BME280;44545;47.480;19.024;2023-09-12T04:33:12;99932.81;;;17.20;100.00
58775;BME280;44545;47.480;19.024;2023-09-12T04:36:15;99930.13;;;17.19;100.00
58775;BME280;44545;47.480;19.024;2023-09-12T04:39:18;99932.09;;;17.29;100.00
58775;BME280;44545;47.480;19.024;2023-09-12T04:42:21;99923.34;;;17.31;100.00
58775;BME280;44545;47.480;19.024;2023-09-12T04:45:23;99933.00;;;17.31;100.00
58775;BME280;44545;47.480;19.024;2023-09-12T04:48:26;99939.50;;;17.48;100.00
58775;BME280;44545;47.480;19.024;2023-09-12T04:51:28;99940.37;;;17.47;100.00
58775;BME280;44545;47.480;19.024;2023-09-12T04:54:30;99950.34;;;17.64;100.00
58775;BME280;44545;47.480;19.024;2023-09-12T04:57:34;99948.72;;;17.70;100.00
58775;BME280;44545;47.480;19.024;2023-09-12T05:00:39;99954.25;;;17.84;100.00
58775;BME280;44545;47.480;19.024;2023-09-12T05:03:42;99961.16;;;17.77;100.00
58775;BME280;44545;47.480;19.024;2023-09-12T05:06:45;99957.06;;;17.93;100.00
58775;BME280;44545;47.480;19.024;2023-09-12T05:09:48;99953.69;;;18.01;100.00
58775;BME280;44545;47.480;19.024;2023-09-12T05:12:51;99952.78;;;18.00;100.00
58775;BME280;44545;47.480;19.024;2023-09-12T05:15:53;99960.09;;;18.16;100.00
58775;BME280;44545;47.480;19.024;2023-09-12T05:18:56;99958.56;;;18.29;100.00
58775;BME280;44545;47.480;19.024;2023-09-12T05:21:58;99953.31;;;18.32;100.00
58775;BME280;44545;47.480;19.024;2023-09-12T05:25:01;99952.63;;;18.46;100.00
58775;BME280;44545;47.480;19.024;2023-09-12T05:28:04;99950.38;;;18.70;100.00
58775;BME280;44545;47.480;19.024;2023-09-12T05:31:07;99954.63;;;19.23;100.00
58775;BME280;44545;47.480;19.024;2023-09-12T05:34:10;99961.81;;;20.20;100.00
58775;BME280;44545;47.480;19.024;2023-09-12T05:37:12;99954.94;;;20.41;97.51
58775;BME280;44545;47.480;19.024;2023-09-12T05:40:15;99958.50;;;20.44;96.92
58775;BME280;44545;47.480;19.024;2023-09-12T05:43:17;99965.69;;;20.58;97.13
58775;BME280;44545;47.480;19.024;2023-09-12T05:46:21;99972.69;;;20.52;96.37
58775;BME280;44545;47.480;19.024;2023-09-12T05:49:23;99970.00;;;20.46;93.80
58775;BME280;44545;47.480;19.024;2023-09-12T05:52:26;99970.41;;;21.08;92.81
58775;BME280;44545;47.480;19.024;2023-09-12T05:55:29;99972.53;;;22.42;85.51
58775;BME280;44545;47.480;19.024;2023-09-12T05:58:31;99968.50;;;23.89;76.06
58775;BME280;44545;47.480;19.024;2023-09-12T06:01:34;99963.28;;;24.83;68.47
58775;BME280;44545;47.480;19.024;2023-09-12T06:04:37;99961.75;;;25.41;65.86
58775;BME280;44545;47.480;19.024;2023-09-12T06:07:40;99966.00;;;25.55;64.95
58775;BME280;44545;47.480;19.024;2023-09-12T06:10:43;99965.72;;;25.78;63.06
58775;BME280;44545;47.480;19.024;2023-09-12T06:13:46;99965.88;;;25.65;63.10
58775;BME280;44545;47.480;19.024;2023-09-12T06:16:48;99965.44;;;25.33;63.67
58775;BME280;44545;47.480;19.024;2023-09-12T06:19:51;99968.44;;;24.99;63.59
58775;BME280;44545;47.480;19.024;2023-09-12T06:22:53;99976.81;;;24.67;63.78
58775;BME280;44545;47.480;19.024;2023-09-12T06:25:56;99991.97;;;24.58;64.83
58775;BME280;44545;47.480;19.024;2023-09-12T06:28:58;99976.75;;;24.71;64.91
58775;BME280;44545;47.480;19.024;2023-09-12T06:32:01;99976.09;;;24.48;64.59
58775;BME280;44545;47.480;19.024;2023-09-12T06:35:05;99981.22;;;24.66;65.87
58775;BME280;44545;47.480;19.024;2023-09-12T06:38:07;99982.06;;;24.71;64.95
58775;BME280;44545;47.480;19.024;2023-09-12T06:41:10;99983.06;;;24.64;65.79
58775;BME280;44545;47.480;19.024;2023-09-12T06:44:12;99978.37;;;24.87;65.94
58775;BME280;44545;47.480;19.024;2023-09-12T06:47:15;99986.13;;;25.09;65.01
58775;BME280;44545;47.480;19.024;2023-09-12T06:50:17;99980.88;;;25.03;64.46
58775;BME280;44545;47.480;19.024;2023-09-12T06:53:19;99980.91;;;25.00;66.29
58775;BME280;44545;47.480;19.024;2023-09-12T06:56:22;99984.53;;;24.94;63.56
58775;BME280;44545;47.480;19.024;2023-09-12T06:59:25;99982.50;;;24.23;63.72
58775;BME280;44545;47.480;19.024;2023-09-12T07:02:27;99983.16;;;24.52;63.94
58775;BME280;44545;47.480;19.024;2023-09-12T07:05:30;99990.00;;;24.80;62.65
58775;BME280;44545;47.480;19.024;2023-09-12T07:08:32;99990.97;;;24.69;63.68
58775;BME280;44545;47.480;19.024;2023-09-12T07:11:35;99989.31;;;24.60;62.56
58775;BME280;44545;47.480;19.024;2023-09-12T07:14:37;99984.97;;;24.51;63.48
58775;BME280;44545;47.480;19.024;2023-09-12T07:17:40;99991.66;;;24.92;59.77
58775;BME280;44545;47.480;19.024;2023-09-12T07:20:42;99992.31;;;25.11;60.80
58775;BME280;44545;47.480;19.024;2023-09-12T07:23:47;99997.50;;;25.28;61.11
58775;BME280;44545;47.480;19.024;2023-09-12T07:26:49;100002.47;;;25.57;60.07
58775;BME280;44545;47.480;19.024;2023-09-12T07:29:52;99997.31;;;25.45;62.19
58775;BME280;44545;47.480;19.024;2023-09-12T07:32:54;99991.97;;;25.45;61.25
58775;BME280;44545;47.480;19.024;2023-09-12T07:35:57;99994.84;;;25.26;61.69
58775;BME280;44545;47.480;19.024;2023-09-12T07:38:59;99999.88;;;25.51;61.02
58775;BME280;44545;47.480;19.024;2023-09-12T07:42:02;100001.72;;;25.47;60.55
58775;BME280;44545;47.480;19.024;2023-09-12T07:45:05;99998.12;;;25.48;61.56
58775;BME280;44545;47.480;19.024;2023-09-12T07:48:09;100002.56;;;25.49;61.05
58775;BME280;44545;47.480;19.024;2023-09-12T07:51:13;99994.66;;;25.43;62.27
58775;BME280;44545;47.480;19.024;2023-09-12T07:54:17;100003.34;;;25.59;61.13
58775;BME280;44545;47.480;19.024;2023-09-12T07:57:20;99992.59;;;25.65;61.74
58775;BME280;44545;47.480;19.024;2023-09-12T08:00:22;100002.34;;;25.68;60.52
58775;BME280;44545;47.480;19.024;2023-09-12T08:03:25;99997.94;;;25.65;61.67
58775;BME280;44545;47.480;19.024;2023-09-12T08:06:39;99988.22;;;25.57;63.33
58775;BME280;44545;47.480;19.024;2023-09-12T08:09:58;99992.78;;;25.50;62.70
58775;BME280;44545;47.480;19.024;2023-09-12T08:13:01;99984.47;;;25.70;62.07
58775;BME280;44545;47.480;19.024;2023-09-12T08:16:04;99989.09;;;25.60;63.31
58775;BME280;44545;47.480;19.024;2023-09-12T08:19:06;99988.13;;;25.64;62.54
58775;BME280;44545;47.480;19.024;2023-09-12T08:22:10;99990.62;;;25.78;60.88
58775;BME280;44545;47.480;19.024;2023-09-12T08:25:12;99993.22;;;25.86;60.96
58775;BME280;44545;47.480;19.024;2023-09-12T08:28:17;99998.56;;;25.86;59.67
58775;BME280;44545;47.480;19.024;2023-09-12T08:31:19;99992.00;;;26.08;59.67
58775;BME280;44545;47.480;19.024;2023-09-12T08:34:23;100002.31;;;26.31;58.20
58775;BME280;44545;47.480;19.024;2023-09-12T08:37:25;100001.12;;;26.49;58.36
58775;BME280;44545;47.480;19.024;2023-09-12T08:40:27;100007.78;;;26.78;56.21
58775;BME280;44545;47.480;19.024;2023-09-12T08:43:32;100009.81;;;27.12;54.58
58775;BME280;44545;47.480;19.024;2023-09-12T08:46:35;100002.13;;;26.95;54.70
58775;BME280;44545;47.480;19.024;2023-09-12T08:49:41;99985.69;;;27.15;55.76
58775;BME280;44545;47.480;19.024;2023-09-12T08:52:45;99990.94;;;27.21;55.19
58775;BME280;44545;47.480;19.024;2023-09-12T08:56:09;99984.38;;;27.37;55.46
58775;BME280;44545;47.480;19.024;2023-09-12T08:59:12;99992.13;;;27.05;53.07
58775;BME280;44545;47.480;19.024;2023-09-12T09:02:15;99993.50;;;27.27;53.53
58775;BME280;44545;47.480;19.024;2023-09-12T09:05:20;99986.19;;;27.35;53.81
58775;BME280;44545;47.480;19.024;2023-09-12T09:08:25;100004.59;;;27.51;53.15
58775;BME280;44545;47.480;19.024;2023-09-12T09:11:28;99994.69;;;27.56;52.82
58775;BME280;44545;47.480;19.024;2023-09-12T09:14:31;100000.63;;;27.70;52.16
58775;BME280;44545;47.480;19.024;2023-09-12T09:17:33;99986.69;;;27.95;52.73
58775;BME280;44545;47.480;19.024;2023-09-12T09:20:41;100000.37;;;28.20;51.38
58775;BME280;44545;47.480;19.024;2023-09-12T09:23:45;99999.75;;;28.46;50.69
58775;BME280;44545;47.480;19.024;2023-09-12T09:26:50;99993.56;;;28.42;49.66
58775;BME280;44545;47.480;19.024;2023-09-12T09:29:53;100010.03;;;28.64;48.53
58775;BME280;44545;47.480;19.024;2023-09-12T09:32:55;100023.56;;;28.60;46.85
58775;BME280;44545;47.480;19.024;2023-09-12T09:36:05;100016.28;;;28.65;46.97
58775;BME280;44545;47.480;19.024;2023-09-12T09:39:07;100026.38;;;28.89;45.68
58775;BME280;44545;47.480;19.024;2023-09-12T09:42:11;100017.63;;;29.15;45.69
58775;BME280;44545;47.480;19.024;2023-09-12T09:45:14;100032.47;;;29.29;44.85
58775;BME280;44545;47.480;19.024;2023-09-12T09:48:24;100014.63;;;29.28;45.14
58775;BME280;44545;47.480;19.024;2023-09-12T09:51:30;100037.13;;;29.55;43.93
58775;BME280;44545;47.480;19.024;2023-09-12T09:54:34;100049.16;;;29.73;42.68
58775;BME280;44545;47.480;19.024;2023-09-12T09:57:37;100036.91;;;29.92;42.91
58775;BME280;44545;47.480;19.024;2023-09-12T10:00:40;100095.72;;;30.33;40.24
58775;BME280;44545;47.480;19.024;2023-09-12T10:03:44;100094.91;;;30.87;39.74
58775;BME280;44545;47.480;19.024;2023-09-12T10:06:48;100140.59;;;31.42;37.26
58775;BME280;44545;47.480;19.024;2023-09-12T10:09:51;100095.88;;;31.61;38.27
58775;BME280;44545;47.480;19.024;2023-09-12T10:12:58;100173.53;;;32.47;35.20
58775;BME280;44545;47.480;19.024;2023-09-12T10:16:01;100154.69;;;32.91;35.33
58775;BME280;44545;47.480;19.024;2023-09-12T10:19:21;100134.66;;;33.60;35.49
58775;BME280;44545;47.480;19.024;2023-09-12T10:22:28;100235.34;;;34.85;31.48
58775;BME280;44545;47.480;19.024;2023-09-12T10:25:35;100278.13;;;35.70;29.75
58775;BME280;44545;47.480;19.024;2023-09-12T10:28:42;100273.50;;;35.89;29.54
58775;BME280;44545;47.480;19.024;2023-09-12T10:31:46;100291.31;;;36.63;28.72
58775;BME280;44545;47.480;19.024;2023-09-12T10:34:51;100320.88;;;37.01;27.26
58775;BME280;44545;47.480;19.024;2023-09-12T10:37:55;100343.06;;;37.72;26.62
58775;BME280;44545;47.480;19.024;2023-09-12T10:41:02;100326.53;;;38.22;26.44
58775;BME280;44545;47.480;19.024;2023-09-12T10:44:32;100414.13;;;39.03;23.51
58775;BME280;44545;47.480;19.024;2023-09-12T10:47:36;100437.09;;;40.11;22.55
58775;BME280;44545;47.480;19.024;2023-09-12T10:50:41;100523.81;;;41.52;20.09
58775;BME280;44545;47.480;19.024;2023-09-12T10:53:46;100568.91;;;43.05;18.62
58775;BME280;44545;47.480;19.024;2023-09-12T10:57:10;100630.06;;;45.81;16.78
58775;BME280;44545;47.480;19.024;2023-09-12T11:00:15;100676.12;;;47.10;15.28
58775;BME280;44545;47.480;19.024;2023-09-12T11:03:38;100728.13;;;49.12;13.69
58775;BME280;44545;47.480;19.024;2023-09-12T11:06:41;100708.25;;;48.80;13.75
58775;BME280;44545;47.480;19.024;2023-09-12T11:09:44;100772.06;;;50.98;11.73
58775;BME280;44545;47.480;19.024;2023-09-12T11:12:52;100813.88;;;52.60;10.53
58775;BME280;44545;47.480;19.024;2023-09-12T11:16:11;100733.28;;;50.63;11.92
58775;BME280;44545;47.480;19.024;2023-09-12T11:22:25;100682.81;;;50.25;12.16
58775;BME280;44545;47.480;19.024;2023-09-12T11:25:28;100728.37;;;51.16;10.99
58775;BME280;44545;47.480;19.024;2023-09-12T11:28:31;100695.19;;;49.71;11.70
58775;BME280;44545;47.480;19.024;2023-09-12T11:31:33;100655.28;;;48.48;12.41
58775;BME280;44545;47.480;19.024;2023-09-12T11:34:41;100596.09;;;46.31;13.66
58775;BME280;44545;47.480;19.024;2023-09-12T11:37:51;100502.22;;;44.81;15.53
58775;BME280;44545;47.480;19.024;2023-09-12T11:40:55;100345.16;;;41.25;19.18
58775;BME280;44545;47.480;19.024;2023-09-12T11:43:57;100261.53;;;38.87;21.25
58775;BME280;44545;47.480;19.024;2023-09-12T11:47:01;100150.13;;;36.12;24.29
58775;BME280;44545;47.480;19.024;2023-09-12T11:50:34;100100.63;;;35.23;25.03
58775;BME280;44545;47.480;19.024;2023-09-12T11:53:41;100071.09;;;34.46;26.44
58775;BME280;44545;47.480;19.024;2023-09-12T11:56:44;100066.97;;;34.20;26.51
58775;BME280;44545;47.480;19.024;2023-09-12T11:59:48;100051.09;;;33.54;27.30
58775;BME280;44545;47.480;19.024;2023-09-12T12:02:52;100031.13;;;33.37;27.41
58775;BME280;44545;47.480;19.024;2023-09-12T12:05:55;100005.41;;;33.48;28.39
58775;BME280;44545;47.480;19.024;2023-09-12T12:08:58;100024.66;;;33.21;27.89
58775;BME280;44545;47.480;19.024;2023-09-12T12:12:11;99981.03;;;32.89;29.02
58775;BME280;44545;47.480;19.024;2023-09-12T12:15:14;99984.09;;;33.00;29.37
58775;BME280;44545;47.480;19.024;2023-09-12T12:18:16;99996.50;;;32.64;28.92
58775;BME280;44545;47.480;19.024;2023-09-12T12:21:18;99999.81;;;33.13;28.89
58775;BME280;44545;47.480;19.024;2023-09-12T12:24:21;99995.31;;;32.71;29.33
58775;BME280;44545;47.480;19.024;2023-09-12T12:27:23;99995.25;;;32.72;29.24
58775;BME280;44545;47.480;19.024;2023-09-12T12:30:30;99978.47;;;32.44;29.38
58775;BME280;44545;47.480;19.024;2023-09-12T12:33:34;99984.34;;;32.53;29.61
58775;BME280;44545;47.480;19.024;2023-09-12T12:36:57;99988.75;;;32.34;29.12
58775;BME280;44545;47.480;19.024;2023-09-12T12:40:00;99952.75;;;32.13;30.00
58775;BME280;44545;47.480;19.024;2023-09-12T12:43:04;99995.53;;;32.22;28.71
58775;BME280;44545;47.480;19.024;2023-09-12T12:46:10;99950.06;;;32.33;30.20
58775;BME280;44545;47.480;19.024;2023-09-12T12:49:15;99945.34;;;31.72;30.04
58775;BME280;44545;47.480;19.024;2023-09-12T12:52:24;99960.69;;;31.95;29.83
58775;BME280;44545;47.480;19.024;2023-09-12T12:55:30;99972.63;;;31.65;29.31
58775;BME280;44545;47.480;19.024;2023-09-12T12:58:33;99951.75;;;31.93;29.36
58775;BME280;44545;47.480;19.024;2023-09-12T13:01:36;99941.06;;;32.12;30.27
58775;BME280;44545;47.480;19.024;2023-09-12T13:04:40;99965.16;;;31.95;29.85
58775;BME280;44545;47.480;19.024;2023-09-12T13:07:42;99951.44;;;31.78;29.87
58775;BME280;44545;47.480;19.024;2023-09-12T13:10:45;99929.41;;;31.68;30.71
58775;BME280;44545;47.480;19.024;2023-09-12T13:13:49;99964.44;;;31.68;29.69
58775;BME280;44545;47.480;19.024;2023-09-12T13:16:52;99910.31;;;31.72;30.93
58775;BME280;44545;47.480;19.024;2023-09-12T13:19:55;99944.34;;;31.75;30.14
58775;BME280;44545;47.480;19.024;2023-09-12T13:22:57;99948.44;;;31.63;30.03
58775;BME280;44545;47.480;19.024;2023-09-12T13:25:59;99919.44;;;31.46;30.97
58775;BME280;44545;47.480;19.024;2023-09-12T13:29:02;99926.72;;;31.44;30.73
58775;BME280;44545;47.480;19.024;2023-09-12T13:32:05;99911.19;;;31.51;31.28
58775;BME280;44545;47.480;19.024;2023-09-12T13:35:07;99921.59;;;31.37;30.82
58775;BME280;44545;47.480;19.024;2023-09-12T13:38:10;99903.97;;;31.28;31.02
58775;BME280;44545;47.480;19.024;2023-09-12T13:41:13;99884.25;;;31.27;32.41
58775;BME280;44545;47.480;19.024;2023-09-12T13:44:17;99897.81;;;31.24;31.32
58775;BME280;44545;47.480;19.024;2023-09-12T13:47:19;99906.69;;;31.04;30.94
58775;BME280;44545;47.480;19.024;2023-09-12T13:50:26;99907.22;;;30.89;31.05
58775;BME280;44545;47.480;19.024;2023-09-12T13:53:30;99880.38;;;30.87;31.68
58775;BME280;44545;47.480;19.024;2023-09-12T13:56:32;99905.25;;;30.94;30.84
58775;BME280;44545;47.480;19.024;2023-09-12T13:59:35;99880.25;;;30.91;32.15
58775;BME280;44545;47.480;19.024;2023-09-12T14:02:46;99890.38;;;30.84;31.69
58775;BME280;44545;47.480;19.024;2023-09-12T14:05:49;99863.69;;;30.76;31.98
58775;BME280;44545;47.480;19.024;2023-09-12T14:08:56;99888.13;;;30.72;31.51
58775;BME280;44545;47.480;19.024;2023-09-12T14:11:59;99908.66;;;30.74;31.28
58775;BME280;44545;47.480;19.024;2023-09-12T14:15:01;99900.88;;;30.66;31.34
58775;BME280;44545;47.480;19.024;2023-09-12T14:18:10;99888.00;;;30.50;31.56
58775;BME280;44545;47.480;19.024;2023-09-12T14:21:14;99896.78;;;30.55;31.43
58775;BME280;44545;47.480;19.024;2023-09-12T14:24:18;99924.84;;;30.73;30.62
58775;BME280;44545;47.480;19.024;2023-09-12T14:27:22;99930.25;;;30.73;30.34
58775;BME280;44545;47.480;19.024;2023-09-12T14:30:28;99925.97;;;30.67;30.53
58775;BME280;44545;47.480;19.024;2023-09-12T14:33:37;99881.19;;;30.64;31.82
58775;BME280;44545;47.480;19.024;2023-09-12T14:36:40;99897.25;;;30.66;31.34
58775;BME280;44545;47.480;19.024;2023-09-12T14:39:42;99885.06;;;30.82;31.69
58775;BME280;44545;47.480;19.024;2023-09-12T14:42:44;99917.78;;;31.19;30.30
58775;BME280;44545;47.480;19.024;2023-09-12T14:45:47;99933.63;;;31.28;30.32
58775;BME280;44545;47.480;19.024;2023-09-12T14:48:50;99906.56;;;31.07;30.82
58775;BME280;44545;47.480;19.024;2023-09-12T14:52:03;99920.91;;;31.08;30.46
58775;BME280;44545;47.480;19.024;2023-09-12T14:55:16;99912.38;;;30.70;30.67
58775;BME280;44545;47.480;19.024;2023-09-12T14:58:19;99912.75;;;30.34;30.74
58775;BME280;44545;47.480;19.024;2023-09-12T15:01:21;99881.81;;;30.21;30.96
58775;BME280;44545;47.480;19.024;2023-09-12T15:04:23;99900.50;;;30.51;31.12
58775;BME280;44545;47.480;19.024;2023-09-12T15:07:27;99910.37;;;30.52;30.77
58775;BME280;44545;47.480;19.024;2023-09-12T15:10:32;99941.88;;;30.73;29.92
58775;BME280;44545;47.480;19.024;2023-09-12T15:13:34;99870.19;;;30.45;31.92
58775;BME280;44545;47.480;19.024;2023-09-12T15:16:42;99874.50;;;30.26;31.61
